Language selection

Features

My Weather Profile Weather Topics  | 

Pacific - South Coast: Past 24 Hour Conditions

 

South Moresby - 46147

10:00 AM PST 21 November 2019Buoy position: 51.83N 131.23W
Disclaimer

This table is a summary of hourly weather conditions for the past 24 hours.
Please note that these observations might not always be representative of weather conditions over their associated marine area.

Date / Time
(PST)
Wind(knots) Wave height(m) Wave period(s) Pressure(kPa) Air tempC) Water tempC)
21 November 2019
10:00 S 22 gust 27 3.5 13.0 100.6 10 10
9:00 S 23 gust 27 3.2 10.0 100.6 10 10
8:00 SSE 23 gust 29 2.9 14.0 100.6 10 10
7:00 SSE 22 gust 27 2.9 14.0 100.7 10 10
6:00 SE 19 gust 25 2.7 12.0 100.8 10 10
5:00 SE 16 gust 19 2.7 14.0 100.9 10 10
4:00 SSE 17 gust 22 2.8 14.0 101.1 10 10
3:00 SSE 13 gust 17 2.6 14.0 101.1 10 10
2:00 SSE 16 gust 19 2.6 12.0 101.2 10 10
1:00 SE 16 gust 19 2.6 14.0 101.3 10 10
0:00 SE 16 gust 19 2.6 13.0 101.3 10 10
20 November 2019
23:00 SE 16 gust 19 2.7 14.0 101.4 10 10
22:00 SSE 13 gust 17 2.9 12.0 101.4 9 10
21:00 SSE 12 gust 16 3.2 14.0 101.5 9 10
20:00 SSE 12 gust 16 3.5 13.0 101.6 9 10
19:00 SSE 12 gust 13 3.2 14.0 101.7 9 10
18:00 SSE 12 gust 16 2.8 12.0 101.7 9 10
17:00 SSE 10 gust 13 2.8 13.0 101.8 10 10
16:00 SSE 8 gust 12 2.4 12.0 101.9 10 10
15:00 SSE 8 gust 10 2.3 15.0 101.9 10 10
14:00 S 6 gust 8 2.0 15.0 102.1 10 10
13:00 SSW 6 gust 8 2.0 14.0 102.1 10 10
12:00 S 6 gust 6 1.8 12.0 102.2 10 10
11:00 SSW 4 gust 6 1.7 16.0 102.3 10 10
10:00 SW 4 gust 6 1.8 12.0 102.3 10 10

Zoom-in to make a selection

Map of Pacific - South Coast marine weather areas South Nomad - 46036 Sentry Shoal - 46131 South Brooks - 46132 Halibut Bank - 46146 South Moresby - 46147 South Hecate Strait - 46185 West Sea Otter - 46204 La Perouse Bank - 46206 East Dellwood - 46207 Discovery Island Esquimalt Harbour Kelp Reefs Malahat Race Rocks Lightstation Saturna Island Sheringham Point University of Victoria Victoria Gonzales Victoria Int'l Airport Ballenas Islands Campbell River Airport Comox Airport Entrance Island Fanny Island Nanaimo Airport Port Hardy Airport Sisters Islets Estevan Point Port Alberni Sartine Island Solander Island Tofino Airport Grief Point Howe Sound - Pam Rocks Powell River Airport Sechelt Squamish Airport Cape St.James Bella Bella Airport Bella Coola Airport Cathedral Point Herbert Island Point Atkinson Sand Heads Lightstation Tsawwassen Ferry Terminal Vancouver Int'l Airport Vancouver Harbour West Vancouver
Legend:
buoy Buoy
land station Land Station

Pacific - South Coast Area

Another Region

What we are doing

Date modified: